Terminal Aerodrome Forecast
Issued by NWS Grand Forks, ND

Home | Current Version | Previous Version | Text Only | Print | Product List | Glossary Off
Versions: 1 2 3 4 5 6 7 8 9 10 11 12 13 14 15 16 17 18 19

722
FTUS43 KFGF 200544
TAFFAR
TAF
KFAR 200544Z 2006/2106 36015KT 2SM -SN BR OVC025
     FM200700 35015KT 3SM -SN OVC035
     FM201000 35012KT 2SM -SN OVC025
      TEMPO 2010/2013 3/4SM -SN OVC015
     FM201300 34011KT 4SM -SN OVC035
     FM201500 33013KT 1SM -SN OVC025
     FM201900 32011KT P6SM OVC020
     FM202300 30009KT P6SM BKN045=

USA.gov is the U.S. government's official web portal to all federal, state and local government web resources and services.